Time;durP1;ratioP1;P1;durP2;ratioP2;P2;SDS_P1;SDS_P2;PMS_P1;PMS_P2;Temp;Humidity;BMP_temperature;BMP_pressure;BME280_temperature;BME280_humidity;BME280_pressure;Samples;Min_cycle;Max_cycle;Signal;HPM_P1;HPM_P2
2022/01/05 00:01:18;;;;;;;0.63;0.32;;;9.00;99.90;;;;;;5094741;28;20046;-48
2022/01/05 00:03:44;;;;;;;1.33;0.60;;;9.00;99.90;;;;;;5094701;28;20046;-47
2022/01/05 00:06:09;;;;;;;1.20;0.60;;;8.90;99.90;;;;;;5094276;28;20023;-46
2022/01/05 00:08:35;;;;;;;0.55;0.50;;;8.90;99.90;;;;;;5094276;28;20024;-47
2022/01/05 00:11:01;;;;;;;2.03;0.60;;;8.80;99.90;;;;;;5076141;28;20020;-51
2022/01/05 00:13:26;;;;;;;0.88;0.50;;;8.80;99.90;;;;;;5093621;28;20016;-49
2022/01/05 00:15:52;;;;;;;0.52;0.52;;;8.90;99.90;;;;;;5094163;28;20047;-47
2022/01/05 00:18:17;;;;;;;0.85;0.52;;;9.00;99.90;;;;;;5075866;28;20501;-46
2022/01/05 00:20:43;;;;;;;2.63;0.55;;;9.00;99.90;;;;;;5076021;28;20023;-46
2022/01/05 00:23:09;;;;;;;0.88;0.30;;;8.90;99.90;;;;;;5075395;28;20016;-45
2022/01/05 00:25:35;;;;;;;0.80;0.70;;;8.90;99.90;;;;;;5075914;28;20466;-48
2022/01/05 00:28:01;;;;;;;0.93;0.50;;;8.90;99.90;;;;;;5093917;28;20024;-45
2022/01/05 00:30:27;;;;;;;1.85;0.60;;;8.90;99.90;;;;;;5075672;28;20024;-46
2022/01/05 00:32:53;;;;;;;0.82;0.60;;;9.00;99.90;;;;;;5093885;28;20077;-46
2022/01/05 00:35:18;;;;;;;0.55;0.40;;;9.00;99.90;;;;;;5093854;28;20024;-46
2022/01/05 00:37:44;;;;;;;2.67;0.45;;;9.10;99.90;;;;;;5093684;28;20028;-48
2022/01/05 00:40:10;;;;;;;1.08;0.40;;;9.20;99.90;;;;;;5076351;28;20024;-46
2022/01/05 00:45:58;;;;;;;0.82;0.40;;;9.30;99.90;;;;;;5093699;28;20063;-47
2022/01/05 00:48:23;;;;;;;0.55;0.50;;;9.20;99.90;;;;;;5075902;28;20043;-48
2022/01/05 00:50:49;;;;;;;0.73;0.45;;;9.30;99.90;;;;;;5075593;28;20032;-47
2022/01/05 00:53:15;;;;;;;0.95;0.38;;;9.10;99.90;;;;;;5093835;28;20077;-46
2022/01/05 00:55:40;;;;;;;0.88;0.40;;;9.10;99.90;;;;;;5075431;28;20062;-46
2022/01/05 00:58:06;;;;;;;0.68;0.25;;;9.00;99.90;;;;;;5093619;28;20386;-46
2022/01/05 01:00:32;;;;;;;2.72;0.40;;;8.90;99.90;;;;;;5075926;28;20024;-46
2022/01/05 01:02:57;;;;;;;0.40;0.30;;;8.90;99.90;;;;;;5092355;28;20028;-45
2022/01/05 01:05:23;;;;;;;0.68;0.35;;;9.00;99.90;;;;;;5075841;28;20020;-46
2022/01/05 01:07:49;;;;;;;0.40;0.35;;;9.10;99.90;;;;;;5075274;28;20118;-46
2022/01/05 01:10:15;;;;;;;1.17;0.52;;;9.00;99.90;;;;;;5093450;28;20021;-47
2022/01/05 01:12:41;;;;;;;0.65;0.40;;;9.00;99.90;;;;;;5093432;28;20024;-48
2022/01/05 01:15:09;;;;;;;0.30;0.30;;;9.00;99.90;;;;;;5075519;28;20026;-50
2022/01/05 01:17:34;;;;;;;0.77;0.40;;;9.00;99.90;;;;;;5075235;28;20065;-48
2022/01/05 01:20:00;;;;;;;2.17;0.50;;;9.10;99.90;;;;;;5093442;28;20056;-48
2022/01/05 01:22:29;;;;;;;3.55;0.43;;;9.10;99.90;;;;;;5093683;28;20463;-50
2022/01/05 01:24:55;;;;;;;0.90;0.45;;;9.10;99.90;;;;;;5093379;28;20032;-48
2022/01/05 01:27:21;;;;;;;1.00;0.35;;;9.10;99.90;;;;;;5075527;28;20028;-50
2022/01/05 01:29:46;;;;;;;2.53;0.60;;;9.10;99.90;;;;;;5076290;28;20046;-46
2022/01/05 01:32:12;;;;;;;0.38;0.30;;;9.00;99.90;;;;;;5093221;28;20028;-46
2022/01/05 01:34:37;;;;;;;2.92;0.55;;;9.00;99.90;;;;;;5078982;28;20088;-46
2022/01/05 01:37:03;;;;;;;0.47;0.32;;;8.90;99.90;;;;;;5079218;28;20077;-46
2022/01/05 01:39:29;;;;;;;1.63;0.40;;;8.90;99.90;;;;;;5079078;28;20102;-46
2022/01/05 01:41:54;;;;;;;2.08;1.65;;;8.80;99.90;;;;;;5097229;28;20058;-48
2022/01/05 01:44:20;;;;;;;0.93;0.40;;;8.70;99.90;;;;;;5078983;28;20111;-45
2022/01/05 01:46:46;;;;;;;0.88;0.30;;;8.70;99.90;;;;;;5079061;28;20123;-46
2022/01/05 01:49:12;;;;;;;1.23;0.40;;;8.70;99.90;;;;;;5078910;28;20024;-49
2022/01/05 01:51:37;;;;;;;1.88;0.50;;;8.70;99.90;;;;;;5097533;28;20031;-48
2022/01/05 01:54:04;;;;;;;0.70;0.40;;;8.70;99.90;;;;;;5096837;28;20035;-48
2022/01/05 01:56:33;;;;;;;1.08;0.52;;;8.80;99.90;;;;;;5096535;28;20092;-46
2022/01/05 01:59:00;;;;;;;3.97;0.75;;;8.70;99.90;;;;;;5096908;28;20027;-48
2022/01/05 02:01:26;;;;;;;1.75;0.70;;;8.70;99.90;;;;;;5078852;28;20172;-46
2022/01/05 02:03:52;;;;;;;1.27;0.22;;;8.70;99.90;;;;;;5078929;28;20091;-47
2022/01/05 02:06:17;;;;;;;0.45;0.35;;;8.70;99.90;;;;;;5096925;28;20031;-48
2022/01/05 02:08:43;;;;;;;0.80;0.30;;;8.70;99.90;;;;;;5078751;28;20028;-50
2022/01/05 02:11:11;;;;;;;0.38;0.38;;;8.60;99.90;;;;;;5078663;28;20020;-46
2022/01/05 02:13:37;;;;;;;0.43;0.25;;;8.50;99.90;;;;;;5097119;28;20016;-48
2022/01/05 02:16:03;;;;;;;4.53;0.50;;;8.30;99.90;;;;;;5096448;28;20100;-46
2022/01/05 02:21:02;;;;;;;1.52;0.65;;;8.00;99.90;;;;;;5096752;28;20020;-46
2022/01/05 02:23:28;;;;;;;1.42;0.50;;;7.90;99.90;;;;;;5096373;28;20504;-46
2022/01/05 02:25:54;;;;;;;0.52;0.30;;;7.80;99.90;;;;;;5096279;28;20024;-47
2022/01/05 02:28:20;;;;;;;0.55;0.32;;;7.80;99.90;;;;;;5096153;28;20020;-46
2022/01/05 02:30:49;;;;;;;1.40;0.20;;;7.80;99.90;;;;;;5077908;28;20115;-46
2022/01/05 02:33:55;;;;;;;0.95;0.20;;;7.70;99.90;;;;;;5078899;28;20084;-46
2022/01/05 02:36:21;;;;;;;3.13;0.52;;;7.60;99.90;;;;;;5096428;28;20051;-47
2022/01/05 02:38:48;;;;;;;0.70;0.30;;;7.70;99.90;;;;;;5077928;28;20047;-46
2022/01/05 02:41:14;;;;;;;0.30;0.30;;;7.60;99.90;;;;;;5096073;28;20028;-45
2022/01/05 02:43:41;;;;;;;0.15;0.15;;;7.60;99.90;;;;;;5096015;28;20021;-47
2022/01/05 02:46:12;;;;;;;1.63;0.93;;;7.60;99.90;;;;;;5095242;28;20028;-47
2022/01/05 02:48:38;;;;;;;0.17;0.17;;;7.40;99.90;;;;;;5095898;28;20020;-46
2022/01/05 02:51:05;;;;;;;2.13;0.32;;;7.30;99.90;;;;;;5078083;28;20124;-48
2022/01/05 02:53:31;;;;;;;2.60;0.10;;;7.30;99.90;;;;;;5077631;28;20107;-46
2022/01/05 02:55:57;;;;;;;1.80;0.30;;;7.40;99.90;;;;;;5077635;28;20059;-46
2022/01/05 02:58:22;;;;;;;0.68;0.30;;;7.30;99.90;;;;;;5078790;28;20046;-46
2022/01/05 03:00:48;;;;;;;3.35;0.30;;;7.20;99.90;;;;;;5095917;28;20044;-48
2022/01/05 03:03:14;;;;;;;1.65;0.13;;;7.20;99.90;;;;;;5095685;28;20470;-46
2022/01/05 03:05:40;;;;;;;0.90;0.32;;;7.10;99.90;;;;;;5077337;28;20020;-46
2022/01/05 03:08:05;;;;;;;0.52;0.30;;;7.10;99.90;;;;;;5077346;28;20111;-46
2022/01/05 03:10:31;;;;;;;0.63;0.38;;;7.10;99.90;;;;;;5095370;28;20035;-50
2022/01/05 03:12:57;;;;;;;0.20;0.20;;;7.20;99.90;;;;;;5077627;28;20063;-48
2022/01/05 03:15:22;;;;;;;0.57;0.47;;;7.00;99.90;;;;;;5077537;28;20031;-50
2022/01/05 03:17:48;;;;;;;1.95;0.40;;;6.90;99.90;;;;;;5095009;28;20073;-48
2022/01/05 03:20:14;;;;;;;1.33;0.30;;;6.90;99.90;;;;;;5094070;28;20031;-47
2022/01/05 03:22:41;;;;;;;3.63;0.68;;;6.80;99.90;;;;;;5094380;28;20028;-45
2022/01/05 03:25:09;;;;;;;0.63;0.43;;;6.70;99.90;;;;;;5095221;28;20026;-47
2022/01/05 03:27:35;;;;;;;0.50;0.40;;;6.70;99.90;;;;;;5076927;28;20031;-46
2022/01/05 03:30:01;;;;;;;2.42;0.45;;;6.70;99.90;;;;;;5094105;28;20024;-46
2022/01/05 03:32:35;;;;;;;1.60;0.45;;;6.70;99.90;;;;;;5093707;28;20032;-48
2022/01/05 03:35:01;;;;;;;1.92;0.28;;;6.70;99.90;;;;;;5094439;28;20103;-46
2022/01/05 03:37:27;;;;;;;2.10;0.40;;;6.70;99.90;;;;;;5094671;28;20115;-46
2022/01/05 03:39:52;;;;;;;0.65;0.40;;;6.60;99.90;;;;;;5093642;28;20024;-47
2022/01/05 03:42:18;;;;;;;2.70;0.65;;;6.50;99.90;;;;;;5094789;28;20529;-46
2022/01/05 03:44:43;;;;;;;0.65;0.35;;;6.50;99.90;;;;;;5094765;28;20020;-46
2022/01/05 03:47:09;;;;;;;2.05;0.30;;;6.50;99.90;;;;;;5077428;28;20056;-45
2022/01/05 03:49:34;;;;;;;2.80;0.52;;;6.60;99.90;;;;;;5094332;28;20020;-50
2022/01/05 03:52:00;;;;;;;6.13;0.57;;;6.50;99.90;;;;;;5093433;28;20497;-47
2022/01/05 03:54:26;;;;;;;2.15;0.90;;;6.50;99.90;;;;;;5094646;28;20024;-49
2022/01/05 03:56:51;;;;;;;2.15;0.90;;;6.50;99.90;;;;;;5093504;28;20024;-50
2022/01/05 03:59:17;;;;;;;0.73;0.38;;;6.60;99.90;;;;;;5093183;28;20049;-44
2022/01/05 04:01:43;;;;;;;2.80;0.68;;;6.60;99.90;;;;;;5093574;28;20031;-48
2022/01/05 04:04:08;;;;;;;2.03;1.10;;;6.60;99.90;;;;;;5094085;28;20450;-53
2022/01/05 04:06:34;;;;;;;1.65;0.40;;;6.50;99.90;;;;;;5093048;28;20020;-46
2022/01/05 04:08:59;;;;;;;2.65;0.35;;;6.50;99.90;;;;;;5094358;28;20028;-49
2022/01/05 04:11:25;;;;;;;4.13;0.70;;;6.50;99.90;;;;;;5093314;28;20035;-45
2022/01/05 04:13:50;;;;;;;4.50;1.00;;;6.50;99.90;;;;;;5094545;28;20060;-46
2022/01/05 04:16:16;;;;;;;4.63;0.90;;;6.50;99.90;;;;;;5092806;28;20084;-46
2022/01/05 04:22:04;;;;;;;4.07;1.15;;;6.40;99.90;;;;;;5094502;28;20057;-45
2022/01/05 04:24:29;;;;;;;2.05;0.95;;;6.40;99.90;;;;;;5092867;28;20020;-45
2022/01/05 04:26:55;;;;;;;2.30;0.75;;;6.30;99.90;;;;;;5092911;28;20024;-45
2022/01/05 04:29:21;;;;;;;2.95;0.85;;;6.30;99.90;;;;;;5093902;28;20020;-47
2022/01/05 04:31:46;;;;;;;4.00;0.75;;;6.30;99.90;;;;;;5093888;28;20055;-47
2022/01/05 04:34:12;;;;;;;4.63;1.20;;;6.30;99.90;;;;;;5092593;28;20024;-47
2022/01/05 04:36:38;;;;;;;3.15;1.00;;;6.40;99.90;;;;;;5093718;28;20027;-46
2022/01/05 04:39:04;;;;;;;6.57;1.40;;;6.30;99.90;;;;;;5094273;28;20020;-45
2022/01/05 04:41:29;;;;;;;8.93;1.48;;;6.30;99.90;;;;;;5093815;28;20016;-46
2022/01/05 04:43:55;;;;;;;4.75;1.33;;;6.20;99.90;;;;;;5093839;28;20017;-45
2022/01/05 04:46:20;;;;;;;7.28;1.70;;;6.20;99.90;;;;;;5093469;28;20035;-48
2022/01/05 04:48:46;;;;;;;3.63;1.25;;;6.30;99.90;;;;;;5092815;28;20136;-45
2022/01/05 04:51:12;;;;;;;4.03;1.23;;;6.20;99.90;;;;;;5093712;28;20028;-46
2022/01/05 04:53:37;;;;;;;6.07;1.80;;;6.10;99.90;;;;;;5075557;28;20023;-45
2022/01/05 04:56:03;;;;;;;2.65;1.27;;;6.20;99.90;;;;;;5092410;28;20035;-46
2022/01/05 04:58:30;;;;;;;5.57;1.40;;;6.20;99.90;;;;;;5093546;28;20032;-45
2022/01/05 05:00:56;;;;;;;7.55;1.98;;;6.20;99.90;;;;;;5092423;28;20035;-46
2022/01/05 05:03:22;;;;;;;7.22;1.90;;;6.10;99.90;;;;;;5092409;28;20031;-45
2022/01/05 05:05:47;;;;;;;4.45;1.60;;;6.10;99.90;;;;;;5093467;28;20032;-46
2022/01/05 05:08:13;;;;;;;4.22;1.70;;;6.00;99.90;;;;;;5091875;28;20036;-45
2022/01/05 05:10:38;;;;;;;6.85;1.40;;;6.00;99.90;;;;;;5093751;28;20028;-45
2022/01/05 05:13:12;;;;;;;6.70;2.03;;;6.00;99.90;;;;;;5093689;28;20104;-48
2022/01/05 05:15:39;;;;;;;8.32;1.65;;;5.90;99.90;;;;;;5092493;28;20050;-45
2022/01/05 05:18:05;;;;;;;3.55;1.88;;;6.00;99.90;;;;;;5093131;28;20111;-45
2022/01/05 05:20:32;;;;;;;5.18;1.77;;;5.90;99.90;;;;;;5093336;28;20031;-45
2022/01/05 05:23:02;;;;;;;5.78;1.92;;;6.00;99.90;;;;;;5093279;28;20046;-46
2022/01/05 05:25:27;;;;;;;7.50;1.90;;;6.00;99.90;;;;;;5093320;28;20055;-45
2022/01/05 05:27:53;;;;;;;9.90;2.20;;;5.90;99.90;;;;;;5093305;28;20028;-45
2022/01/05 05:30:19;;;;;;;6.57;2.33;;;5.90;99.90;;;;;;5075213;28;20141;-46
2022/01/05 05:32:45;;;;;;;5.70;2.05;;;5.80;99.90;;;;;;5093238;28;20042;-47
2022/01/05 05:35:11;;;;;;;4.00;2.47;;;5.70;99.90;;;;;;5091870;28;20123;-45
2022/01/05 05:37:37;;;;;;;5.15;2.60;;;5.70;99.90;;;;;;5093140;28;20024;-46
2022/01/05 05:40:04;;;;;;;7.13;2.58;;;5.60;99.90;;;;;;5093178;28;20020;-46
2022/01/05 05:42:29;;;;;;;5.45;2.83;;;5.60;99.90;;;;;;5091890;28;20024;-49
2022/01/05 05:44:55;;;;;;;8.27;2.90;;;5.50;99.90;;;;;;5092336;28;20062;-46
2022/01/05 05:47:21;;;;;;;6.45;3.10;;;5.50;99.90;;;;;;5091930;28;20024;-48
2022/01/05 05:49:46;;;;;;;9.02;3.78;;;5.50;99.90;;;;;;5091796;28;20036;-51
2022/01/05 05:52:13;;;;;;;7.03;3.55;;;5.50;99.90;;;;;;5092165;28;20028;-48
2022/01/05 05:54:38;;;;;;;6.38;2.78;;;5.50;99.90;;;;;;5093302;28;20023;-49
2022/01/05 05:57:04;;;;;;;6.88;2.78;;;5.50;99.90;;;;;;5091477;28;20036;-50
2022/01/05 05:59:30;;;;;;;14.70;3.67;;;5.40;99.90;;;;;;5093058;28;20024;-52
2022/01/05 06:01:56;;;;;;;7.90;3.47;;;5.30;99.90;;;;;;5093457;28;20107;-47
2022/01/05 06:04:21;;;;;;;7.07;3.58;;;5.20;99.90;;;;;;5093194;28;20020;-45
2022/01/05 06:06:47;;;;;;;7.90;3.50;;;5.10;99.90;;;;;;5091624;28;20024;-45
2022/01/05 06:09:12;;;;;;;9.15;3.30;;;5.10;99.90;;;;;;5093283;28;20088;-45
2022/01/05 06:11:38;;;;;;;6.82;3.60;;;5.00;99.90;;;;;;5092916;28;20034;-46
2022/01/05 06:14:03;;;;;;;9.82;4.68;;;4.90;99.90;;;;;;5093168;28;20024;-46
2022/01/05 06:16:29;;;;;;;7.95;4.47;;;4.90;99.90;;;;;;5091444;28;20024;-44
2022/01/05 06:18:55;;;;;;;11.50;4.57;;;4.80;99.90;;;;;;5092318;28;20070;-46
2022/01/05 06:21:20;;;;;;;11.43;4.60;;;4.80;99.90;;;;;;5095188;28;20416;-45
2022/01/05 06:23:46;;;;;;;9.27;4.15;;;4.80;99.90;;;;;;5096415;28;20020;-46
2022/01/05 06:26:12;;;;;;;10.15;5.32;;;4.80;99.90;;;;;;5096566;28;20027;-46
2022/01/05 06:28:37;;;;;;;10.98;4.72;;;4.80;99.90;;;;;;5096275;28;20028;-46
2022/01/05 06:31:03;;;;;;;11.32;3.55;;;4.90;99.90;;;;;;5078285;28;20035;-45
2022/01/05 06:33:28;;;;;;;10.27;3.85;;;5.00;99.90;;;;;;5096162;28;20027;-45
2022/01/05 06:35:54;;;;;;;11.25;3.65;;;4.90;99.90;;;;;;5096385;28;20028;-45
2022/01/05 06:38:20;;;;;;;3.80;2.17;;;5.00;99.90;;;;;;5096059;28;20390;-46
2022/01/05 06:40:46;;;;;;;5.97;2.47;;;5.10;99.90;;;;;;5096129;28;20103;-45
2022/01/05 06:43:12;;;;;;;11.35;2.42;;;5.10;99.90;;;;;;5096054;28;20069;-48
2022/01/05 06:45:37;;;;;;;8.70;3.45;;;5.00;99.90;;;;;;5078327;28;20023;-44
2022/01/05 06:48:03;;;;;;;9.23;2.90;;;4.90;99.90;;;;;;5095886;28;20032;-45
2022/01/05 06:50:29;;;;;;;14.13;4.00;;;4.80;99.90;;;;;;5096153;28;20027;-46
2022/01/05 06:52:57;;;;;;;17.63;5.15;;;4.80;99.90;;;;;;5095856;28;20024;-45
2022/01/05 06:55:24;;;;;;;7.95;2.58;;;4.70;99.90;;;;;;5095724;28;20059;-45
2022/01/05 06:57:51;;;;;;;7.95;2.40;;;4.70;99.90;;;;;;5095688;28;20020;-45
2022/01/05 07:00:18;;;;;;;10.68;3.63;;;4.70;99.90;;;;;;5095950;28;20024;-45
2022/01/05 07:02:44;;;;;;;4.90;1.60;;;4.70;99.90;;;;;;5078420;28;20024;-48
2022/01/05 07:05:10;;;;;;;3.35;1.60;;;4.70;99.90;;;;;;5095582;28;20081;-44
2022/01/05 07:07:37;;;;;;;5.53;1.90;;;4.70;99.90;;;;;;5095525;28;20035;-45
2022/01/05 07:10:08;;;;;;;7.82;2.42;;;4.70;99.90;;;;;;5095776;28;20039;-45
2022/01/05 07:12:34;;;;;;;12.93;3.70;;;4.70;99.90;;;;;;5095461;28;20032;-45
2022/01/05 07:15:00;;;;;;;14.80;2.80;;;4.60;99.90;;;;;;5095298;28;20025;-46
2022/01/05 07:17:26;;;;;;;9.82;3.05;;;4.60;99.90;;;;;;5095499;28;20028;-46
2022/01/05 07:19:51;;;;;;;6.25;2.10;;;4.60;99.90;;;;;;5095959;28;20016;-48
2022/01/05 07:22:17;;;;;;;9.18;2.42;;;4.50;99.90;;;;;;5095255;28;20070;-45
2022/01/05 07:24:42;;;;;;;11.70;2.80;;;4.50;99.90;;;;;;5077029;28;20027;-45
2022/01/05 07:27:08;;;;;;;7.63;1.85;;;4.40;99.90;;;;;;5095319;28;20028;-45
2022/01/05 07:29:34;;;;;;;9.85;2.17;;;4.40;99.90;;;;;;5077686;28;20027;-48
2022/01/05 07:32:00;;;;;;;8.90;2.15;;;4.30;99.90;;;;;;5077179;28;20020;-45
2022/01/05 07:34:25;;;;;;;7.25;2.40;;;4.40;99.90;;;;;;5095098;28;20077;-45
2022/01/05 07:36:51;;;;;;;8.68;1.65;;;4.40;99.90;;;;;;5094784;28;20082;-45
2022/01/05 07:39:16;;;;;;;6.97;1.83;;;4.50;99.90;;;;;;5076772;28;20070;-45
2022/01/05 07:41:42;;;;;;;11.68;2.50;;;4.40;99.90;;;;;;5094871;28;20027;-45
2022/01/05 07:44:08;;;;;;;8.63;2.42;;;4.50;99.90;;;;;;5094679;28;20089;-45
2022/01/05 07:46:34;;;;;;;8.23;1.90;;;4.50;99.90;;;;;;5076523;28;20402;-45
2022/01/05 07:49:02;;;;;;;6.50;2.50;;;4.40;99.90;;;;;;5093990;28;20012;-45
2022/01/05 07:51:29;;;;;;;8.77;2.10;;;4.40;99.90;;;;;;5094640;28;20062;-46
2022/01/05 07:53:54;;;;;;;8.90;2.10;;;4.40;99.90;;;;;;5076771;28;20110;-51
2022/01/05 07:56:20;;;;;;;9.70;2.35;;;4.40;99.90;;;;;;5076520;28;20028;-46
2022/01/05 07:58:47;;;;;;;10.52;1.88;;;4.50;99.90;;;;;;5094495;28;20027;-46
2022/01/05 08:01:15;;;;;;;6.53;1.75;;;4.60;99.90;;;;;;5076340;28;20065;-45
2022/01/05 08:03:40;;;;;;;10.80;2.67;;;4.80;99.90;;;;;;5094388;28;20020;-45
2022/01/05 08:06:06;;;;;;;9.93;2.88;;;4.80;99.90;;;;;;5076809;28;20386;-47
2022/01/05 08:08:32;;;;;;;10.88;2.95;;;4.90;99.90;;;;;;5094554;28;20103;-48
2022/01/05 08:10:57;;;;;;;10.63;1.65;;;5.00;99.90;;;;;;5076589;28;20024;-48
2022/01/05 08:13:27;;;;;;;13.63;1.60;;;5.30;99.90;;;;;;5076227;28;20119;-46
2022/01/05 08:15:53;;;;;;;17.02;2.15;;;5.60;99.90;;;;;;5094065;28;20020;-45
2022/01/05 08:18:20;;;;;;;11.57;1.90;;;6.30;99.90;;;;;;5075905;28;20032;-48
2022/01/05 08:20:46;;;;;;;7.93;2.72;;;6.90;99.90;;;;;;5076280;28;20020;-45
2022/01/05 08:23:20;;;;;;;9.70;2.65;;;7.30;99.90;;;;;;5076295;28;20024;-46
2022/01/05 08:25:46;;;;;;;6.18;1.88;;;7.50;99.90;;;;;;5075895;28;20020;-45
2022/01/05 08:28:12;;;;;;;4.47;1.60;;;7.80;99.90;;;;;;5094063;28;20028;-45
2022/01/05 08:30:39;;;;;;;9.82;1.73;;;8.30;99.90;;;;;;5094307;28;20031;-45
2022/01/05 08:33:06;;;;;;;5.53;1.38;;;9.00;99.90;;;;;;5093889;28;20024;-45
2022/01/05 08:35:33;;;;;;;6.60;1.45;;;9.40;99.90;;;;;;5093972;28;20028;-46
2022/01/05 08:37:59;;;;;;;9.07;2.85;;;9.90;99.90;;;;;;5075709;28;20181;-47
2022/01/05 08:40:25;;;;;;;9.55;2.03;;;10.20;99.90;;;;;;5093826;28;20510;-46
2022/01/05 08:42:53;;;;;;;9.07;1.55;;;10.30;99.90;;;;;;5093419;28;20072;-47
2022/01/05 08:45:19;;;;;;;10.90;2.08;;;10.70;99.90;;;;;;5076126;28;20020;-47
2022/01/05 08:47:49;;;;;;;5.07;1.58;;;11.10;99.90;;;;;;5075298;28;20047;-46
2022/01/05 08:50:20;;;;;;;6.00;1.50;;;11.20;99.90;;;;;;5075592;28;20145;-46
2022/01/05 08:52:46;;;;;;;8.57;1.92;;;10.50;99.90;;;;;;5093799;28;20386;-45
2022/01/05 08:55:13;;;;;;;8.48;1.63;;;9.80;99.90;;;;;;5093459;28;20034;-45
2022/01/05 08:57:40;;;;;;;6.90;1.65;;;9.10;99.90;;;;;;5093747;28;20032;-45
2022/01/05 09:00:08;;;;;;;11.15;1.42;;;8.40;99.90;;;;;;5093591;28;20067;-45
2022/01/05 09:02:34;;;;;;;8.02;2.15;;;7.90;99.90;;;;;;5093430;28;20433;-46
2022/01/05 09:05:54;;;;;;;10.20;2.33;;;7.50;99.90;;;;;;5093247;28;20020;-47
2022/01/05 09:08:19;;;;;;;19.67;6.82;;;7.10;99.90;;;;;;5093365;28;20035;-45
2022/01/05 09:10:45;;;;;;;13.65;4.78;;;6.90;99.90;;;;;;5075181;28;20021;-44
2022/01/05 09:14:06;;;;;;;13.57;2.88;;;6.70;99.90;;;;;;5075266;28;20466;-45
2022/01/05 09:16:32;;;;;;;9.32;1.83;;;6.50;99.90;;;;;;5075015;28;20028;-45
2022/01/05 09:18:58;;;;;;;5.43;3.75;;;6.20;99.90;;;;;;5075188;28;20509;-45
2022/01/05 09:21:24;;;;;;;14.27;2.40;;;6.10;99.90;;;;;;5075053;28;20097;-45
2022/01/05 09:23:50;;;;;;;5.43;1.67;;;6.20;99.90;;;;;;5092840;28;20433;-44
2022/01/05 09:26:15;;;;;;;6.43;1.77;;;6.20;99.90;;;;;;5075316;28;20020;-47
2022/01/05 09:28:44;;;;;;;15.95;3.35;;;6.10;99.90;;;;;;5093111;28;20025;-45
2022/01/05 09:31:11;;;;;;;9.27;1.65;;;6.00;99.90;;;;;;5075315;28;20065;-45
2022/01/05 09:33:36;;;;;;;10.35;1.73;;;5.90;99.90;;;;;;5075354;28;20028;-46
2022/01/05 09:36:10;;;;;;;14.38;3.03;;;6.00;99.90;;;;;;5092998;28;20035;-47
2022/01/05 09:41:59;;;;;;;6.10;1.30;;;6.10;99.90;;;;;;5093122;28;20038;-45
2022/01/05 09:44:42;;;;;;;8.88;1.75;;;6.10;99.90;;;;;;5075204;28;20028;-45
2022/01/05 09:47:38;;;;;;;13.93;2.13;;;6.00;99.90;;;;;;5093060;28;20028;-46
2022/01/05 09:50:07;;;;;;;6.97;1.85;;;6.00;99.90;;;;;;5092981;28;20024;-47
2022/01/05 09:52:34;;;;;;;10.23;1.95;;;6.00;99.90;;;;;;5092914;28;20020;-49
2022/01/05 09:55:01;;;;;;;11.52;1.50;;;5.90;99.90;;;;;;5093066;28;20047;-45
2022/01/05 09:57:28;;;;;;;13.05;2.58;;;5.90;99.90;;;;;;5078695;28;20118;-45
2022/01/05 09:59:56;;;;;;;5.57;1.92;;;5.80;99.90;;;;;;5097268;28;20032;-44
2022/01/05 10:02:22;;;;;;;5.93;1.63;;;5.80;99.90;;;;;;5096989;28;20024;-47
2022/01/05 10:04:48;;;;;;;17.73;2.50;;;6.00;99.90;;;;;;5078555;28;20024;-45
2022/01/05 10:07:14;;;;;;;11.00;2.33;;;6.00;99.90;;;;;;5096540;28;20089;-46
2022/01/05 10:09:42;;;;;;;7.13;1.95;;;6.00;99.90;;;;;;5096581;28;20022;-45
2022/01/05 10:12:34;;;;;;;7.13;1.58;;;6.00;99.90;;;;;;5078179;28;20054;-47
2022/01/05 10:15:00;;;;;;;7.65;2.47;;;6.00;99.90;;;;;;5078424;28;20016;-45
2022/01/05 10:17:28;;;;;;;17.27;2.53;;;6.00;99.90;;;;;;5078190;28;20441;-45
2022/01/05 10:20:05;;;;;;;12.88;2.28;;;6.00;99.90;;;;;;5078154;28;20458;-46
2022/01/05 10:22:44;;;;;;;11.20;1.92;;;6.00;99.90;;;;;;5096276;28;20044;-46
2022/01/05 10:25:21;;;;;;;6.53;1.95;;;6.10;99.90;;;;;;5096721;28;20537;-47
2022/01/05 10:28:02;;;;;;;9.35;2.00;;;6.10;99.90;;;;;;5096272;28;20099;-46
2022/01/05 10:30:43;;;;;;;4.72;1.50;;;6.10;99.90;;;;;;5096305;28;20034;-45
2022/01/05 10:33:09;;;;;;;4.80;1.63;;;6.10;99.90;;;;;;5096210;28;20047;-44
2022/01/05 10:35:35;;;;;;;7.07;1.77;;;6.20;99.90;;;;;;5078437;28;20034;-47
2022/01/05 10:38:03;;;;;;;7.90;1.42;;;6.20;99.90;;;;;;5077875;28;20107;-48
2022/01/05 10:40:36;;;;;;;7.82;2.40;;;6.30;99.90;;;;;;5096033;28;20044;-45
2022/01/05 10:43:09;;;;;;;8.07;1.40;;;6.30;99.90;;;;;;5096103;28;20031;-46
2022/01/05 10:45:41;;;;;;;7.70;1.73;;;6.30;99.90;;;;;;5078775;28;20020;-45
2022/01/05 10:48:17;;;;;;;6.40;1.52;;;6.40;99.90;;;;;;5077757;28;20027;-47
2022/01/05 10:54:16;;;;;;;9.95;4.15;;;6.50;99.90;;;;;;5096128;28;20043;-45
2022/01/05 10:56:42;;;;;;;19.55;6.22;;;6.50;99.90;;;;;;5091466;28;20074;-47
2022/01/05 10:59:09;;;;;;;14.35;4.47;;;6.50;99.90;;;;;;5057648;28;20048;-48
2022/01/05 11:01:35;;;;;;;17.25;5.10;;;6.50;99.90;;;;;;5081714;28;20111;-46
2022/01/05 11:04:15;;;;;;;18.92;4.88;;;6.60;99.90;;;;;;5095545;28;20051;-49
2022/01/05 11:07:03;;;;;;;17.08;4.32;;;6.70;99.90;;;;;;5076929;28;20077;-48
2022/01/05 11:09:30;;;;;;;20.15;6.97;;;6.80;99.90;;;;;;5077426;28;20021;-47
2022/01/05 11:11:57;;;;;;;35.92;11.30;;;6.90;99.90;;;;;;5077356;28;20024;-48
2022/01/05 11:14:31;;;;;;;23.95;8.25;;;7.00;99.90;;;;;;5077849;28;20020;-46
2022/01/05 11:17:00;;;;;;;20.98;5.40;;;7.10;99.90;;;;;;5076711;28;20028;-46
2022/01/05 11:19:27;;;;;;;18.75;6.35;;;7.10;99.90;;;;;;5077038;28;20017;-46
2022/01/05 11:22:00;;;;;;;22.80;7.63;;;7.10;99.90;;;;;;5077012;28;20069;-46
2022/01/05 11:24:27;;;;;;;18.27;4.78;;;7.20;99.90;;;;;;5076906;28;20028;-48
2022/01/05 11:26:53;;;;;;;30.58;9.68;;;7.20;99.90;;;;;;5095040;28;20032;-45
2022/01/05 11:29:20;;;;;;;17.88;6.90;;;7.10;99.90;;;;;;5095030;28;20107;-46
2022/01/05 11:31:46;;;;;;;17.00;3.95;;;7.20;99.90;;;;;;5094924;28;20038;-46
2022/01/05 11:34:12;;;;;;;19.23;4.38;;;7.20;99.90;;;;;;5094697;28;20032;-49
2022/01/05 11:36:51;;;;;;;17.95;4.80;;;7.30;99.90;;;;;;5076876;28;20043;-48
2022/01/05 11:39:17;;;;;;;7.07;3.88;;;7.30;99.90;;;;;;5076696;28;20024;-48
2022/01/05 11:41:46;;;;;;;5.20;2.03;;;7.30;99.90;;;;;;5077064;28;20023;-49
2022/01/05 11:44:13;;;;;;;8.57;2.42;;;7.30;99.90;;;;;;5094580;28;20016;-49
2022/01/05 11:46:42;;;;;;;9.95;3.25;;;7.30;99.90;;;;;;5093336;28;20028;-50
2022/01/05 11:49:12;;;;;;;33.10;10.85;;;7.20;99.90;;;;;;5095055;28;20044;-49
2022/01/05 11:51:49;;;;;;;48.15;15.32;;;7.20;99.90;;;;;;5094280;28;20386;-47
2022/01/05 11:54:19;;;;;;;19.85;7.10;;;7.30;99.90;;;;;;5094626;28;20020;-46
2022/01/05 11:56:48;;;;;;;13.23;4.75;;;7.40;99.90;;;;;;5075948;28;20035;-46
2022/01/05 11:59:33;;;;;;;8.52;3.92;;;7.40;99.90;;;;;;5076199;28;20035;-46
2022/01/05 12:02:14;;;;;;;7.18;2.13;;;7.50;99.90;;;;;;5076263;28;20023;-48
2022/01/05 12:04:57;;;;;;;6.00;1.80;;;7.40;99.90;;;;;;5094496;28;20024;-48
2022/01/05 12:07:45;;;;;;;6.32;1.60;;;7.40;99.90;;;;;;5094188;28;20054;-47
2022/01/05 12:10:24;;;;;;;9.73;1.88;;;7.60;99.90;;;;;;5076105;28;20024;-46
2022/01/05 12:13:02;;;;;;;11.65;1.95;;;7.60;99.90;;;;;;5094068;28;20024;-48
2022/01/05 12:15:48;;;;;;;8.10;1.80;;;7.60;99.90;;;;;;5094433;28;20020;-49
2022/01/05 12:18:22;;;;;;;8.23;2.13;;;7.60;99.90;;;;;;5093296;28;20054;-49
2022/01/05 12:20:48;;;;;;;8.13;1.85;;;7.60;99.90;;;;;;5075831;28;20019;-49
2022/01/05 12:23:16;;;;;;;10.13;2.03;;;7.60;99.90;;;;;;5094019;28;20035;-47
2022/01/05 12:26:01;;;;;;;6.57;2.30;;;7.50;99.90;;;;;;5094052;28;20099;-49
2022/01/05 12:28:32;;;;;;;8.70;2.13;;;7.60;99.90;;;;;;5075878;28;20024;-48
2022/01/05 12:31:09;;;;;;;7.47;1.45;;;7.40;99.90;;;;;;5093687;28;20032;-49
2022/01/05 12:33:58;;;;;;;8.82;1.80;;;7.40;99.90;;;;;;5086269;28;20033;-47
2022/01/05 12:36:35;;;;;;;11.82;3.10;;;7.40;99.90;;;;;;5073532;28;20025;-47
2022/01/05 12:39:46;;;;;;;6.55;1.17;;;7.40;99.90;;;;;;5079523;28;20111;-47
2022/01/05 12:42:22;;;;;;;8.65;1.27;;;7.50;99.90;;;;;;5075804;28;20035;-48
2022/01/05 12:44:48;;;;;;;12.05;1.63;;;7.50;99.90;;;;;;5093677;28;20032;-51
2022/01/05 12:47:14;;;;;;;7.80;1.63;;;7.70;99.90;;;;;;5075770;28;20028;-48
2022/01/05 12:53:02;;;;;;;5.93;2.00;;;8.00;99.90;;;;;;5094798;28;20383;-51
2022/01/05 12:55:28;;;;;;;9.52;2.05;;;8.00;99.90;;;;;;5095399;28;20020;-47
2022/01/05 12:57:54;;;;;;;4.05;0.98;;;8.10;99.90;;;;;;5093892;28;20064;-49
2022/01/05 13:00:20;;;;;;;2.10;1.20;;;8.10;99.90;;;;;;5093125;28;20036;-48
2022/01/05 13:02:47;;;;;;;11.77;2.22;;;8.10;99.90;;;;;;5075784;28;20020;-48
2022/01/05 13:05:30;;;;;;;5.53;1.33;;;8.00;99.90;;;;;;5092111;28;20103;-47
2022/01/05 13:07:56;;;;;;;8.18;1.20;;;8.00;99.90;;;;;;5092043;28;20035;-48
2022/01/05 13:10:43;;;;;;;6.40;2.03;;;8.10;99.90;;;;;;5093272;28;20028;-48
2022/01/05 13:13:17;;;;;;;7.18;1.48;;;8.00;99.90;;;;;;5074784;28;20032;-47
2022/01/05 13:15:47;;;;;;;7.65;1.95;;;7.90;99.90;;;;;;5073048;28;20074;-47
2022/01/05 13:18:18;;;;;;;8.25;1.75;;;7.90;99.90;;;;;;5055335;28;20031;-51
2022/01/05 13:20:43;;;;;;;11.50;2.87;;;7.80;99.90;;;;;;5079164;28;20020;-49